createdAt,value
2023-05-19T00:00:36.660Z,9.32
2023-05-19T00:03:41.260Z,9.43
2023-05-19T00:06:43.792Z,9.46
2023-05-19T00:09:48.175Z,9.43
2023-05-19T00:12:53.194Z,9.38
2023-05-19T00:15:58.665Z,9.28
2023-05-19T00:19:02.658Z,9.30
2023-05-19T00:22:06.648Z,9.11
2023-05-19T00:25:12.385Z,9.11
2023-05-19T00:28:14.375Z,9.19
2023-05-19T00:31:16.559Z,9.23
2023-05-19T00:34:19.113Z,9.11
2023-05-19T00:37:21.065Z,9.18
2023-05-19T00:40:28.727Z,9.07
2023-05-19T00:43:30.624Z,8.97
2023-05-19T00:46:33.373Z,8.93
2023-05-19T00:49:36.342Z,8.99
2023-05-19T00:52:38.343Z,8.99
2023-05-19T00:55:42.804Z,8.91
2023-05-19T00:58:45.132Z,8.84
2023-05-19T01:01:47.480Z,8.88
2023-05-19T01:04:51.309Z,8.88
2023-05-19T01:07:53.528Z,8.97
2023-05-19T01:10:56.689Z,8.95
2023-05-19T01:13:58.699Z,9.01
2023-05-19T01:17:07.737Z,9.00
2023-05-19T01:20:17.423Z,9.02
2023-05-19T01:23:34.021Z,9.00
2023-05-19T01:27:11.841Z,8.88
2023-05-19T01:30:24.463Z,9.01
2023-05-19T01:33:35.777Z,9.04
2023-05-19T01:36:41.333Z,8.94
2023-05-19T01:39:46.511Z,9.09
2023-05-19T01:42:51.117Z,8.98
2023-05-19T01:45:56.071Z,8.95
2023-05-19T01:49:01.065Z,8.92
2023-05-19T01:52:02.921Z,8.87
2023-05-19T01:55:05.770Z,8.53
2023-05-19T01:58:16.240Z,8.66
2023-05-19T02:01:29.709Z,8.68
2023-05-19T02:04:41.534Z,8.66
2023-05-19T02:07:52.440Z,8.51
2023-05-19T02:11:00.651Z,8.27
2023-05-19T02:14:05.962Z,8.47
2023-05-19T02:17:12.744Z,8.55
2023-05-19T02:20:15.979Z,8.65
2023-05-19T02:23:20.766Z,8.75
2023-05-19T02:26:22.827Z,8.66
2023-05-19T02:29:25.409Z,8.71
2023-05-19T02:32:31.066Z,8.64
2023-05-19T02:35:35.461Z,8.66
2023-05-19T02:38:37.479Z,8.58
2023-05-19T02:41:40.315Z,8.61
2023-05-19T02:44:42.130Z,8.69
2023-05-19T02:47:45.537Z,8.61
2023-05-19T02:50:47.553Z,8.62
2023-05-19T02:53:49.565Z,8.57
2023-05-19T02:56:52.151Z,8.60
2023-05-19T02:59:54.314Z,8.51
2023-05-19T03:03:00.209Z,8.63
2023-05-19T03:06:01.960Z,8.60
2023-05-19T03:09:03.829Z,8.65
2023-05-19T03:12:06.473Z,8.67
2023-05-19T03:15:09.183Z,8.67
2023-05-19T03:18:14.372Z,8.71
2023-05-19T03:21:17.128Z,8.57
2023-05-19T03:24:18.881Z,8.55
2023-05-19T03:27:20.653Z,8.45
2023-05-19T03:30:23.999Z,8.40
2023-05-19T03:33:27.207Z,8.33
2023-05-19T03:36:29.220Z,8.17
2023-05-19T03:39:31.199Z,8.16
2023-05-19T03:42:34.727Z,8.08
2023-05-19T03:45:36.994Z,8.30
2023-05-19T03:48:40.688Z,8.00
2023-05-19T03:51:44.063Z,8.11
2023-05-19T03:54:46.012Z,8.17
2023-05-19T03:57:48.486Z,8.22
2023-05-19T04:00:50.476Z,8.20
2023-05-19T04:03:55.206Z,8.26
2023-05-19T04:06:57.450Z,8.22
2023-05-19T04:09:59.255Z,8.21
2023-05-19T04:13:01.357Z,8.22
2023-05-19T04:16:03.377Z,8.33
2023-05-19T04:19:06.990Z,8.28
2023-05-19T04:22:09.162Z,8.35
2023-05-19T04:25:12.266Z,8.30
2023-05-19T04:28:14.172Z,8.33
2023-05-19T04:31:16.911Z,8.36
2023-05-19T04:34:22.884Z,8.37
2023-05-19T04:37:26.988Z,8.39
2023-05-19T04:40:31.908Z,8.41
2023-05-19T04:43:34.183Z,8.47
2023-05-19T04:46:36.462Z,8.35
2023-05-19T04:49:41.815Z,8.35
2023-05-19T04:52:44.729Z,8.42
2023-05-19T04:55:46.497Z,8.48
2023-05-19T04:58:48.914Z,8.46
2023-05-19T05:01:51.335Z,8.37
2023-05-19T05:04:57.261Z,8.22
2023-05-19T05:07:59.108Z,8.39
2023-05-19T05:11:02.037Z,8.46
2023-05-19T05:14:05.497Z,8.42
2023-05-19T05:17:08.604Z,8.53
2023-05-19T05:20:14.088Z,8.48
2023-05-19T05:23:16.743Z,8.42
2023-05-19T05:26:19.971Z,8.53
2023-05-19T05:29:22.520Z,8.53
2023-05-19T05:32:25.222Z,8.59
2023-05-19T05:35:31.246Z,8.65
2023-05-19T05:38:33.663Z,8.60
2023-05-19T05:41:35.721Z,8.47
2023-05-19T05:44:37.768Z,8.53
2023-05-19T05:47:40.496Z,8.58
2023-05-19T05:50:45.839Z,8.71
2023-05-19T05:53:53.816Z,8.54
2023-05-19T05:56:56.618Z,8.57
2023-05-19T05:59:58.606Z,8.68
2023-05-19T06:03:00.491Z,8.72
2023-05-19T06:06:06.638Z,8.76
2023-05-19T06:09:08.686Z,8.65
2023-05-19T06:12:11.042Z,8.69
2023-05-19T06:15:16.668Z,8.74
2023-05-19T06:18:21.041Z,8.77
2023-05-19T06:21:26.608Z,8.77
2023-05-19T06:24:30.150Z,8.79
2023-05-19T06:27:34.940Z,8.79
2023-05-19T06:30:39.509Z,8.88
2023-05-19T06:33:41.866Z,8.86
2023-05-19T06:36:47.444Z,8.95
2023-05-19T06:39:49.862Z,8.87
2023-05-19T06:42:51.845Z,8.84
2023-05-19T06:45:55.413Z,8.84
2023-05-19T06:48:57.566Z,8.89
2023-05-19T06:52:03.651Z,8.91
2023-05-19T06:55:06.392Z,8.97
2023-05-19T06:58:09.589Z,9.00
2023-05-19T07:01:11.668Z,8.99
2023-05-19T07:04:16.055Z,8.83
2023-05-19T07:07:19.375Z,8.93
2023-05-19T07:10:22.425Z,8.97
2023-05-19T07:13:25.969Z,9.06
2023-05-19T07:16:29.339Z,9.17
2023-05-19T07:19:31.259Z,9.10
2023-05-19T07:22:34.722Z,9.05
2023-05-19T07:25:36.520Z,9.06
2023-05-19T07:28:41.604Z,9.09
2023-05-19T07:31:43.675Z,9.11
2023-05-19T07:34:45.864Z,9.16
2023-05-19T07:37:50.463Z,9.24
2023-05-19T07:40:52.461Z,9.20
2023-05-19T07:43:55.811Z,9.29
2023-05-19T07:46:57.813Z,9.28
2023-05-19T07:49:59.590Z,9.16
2023-05-19T07:53:03.302Z,9.22
2023-05-19T07:56:06.302Z,9.28
2023-05-19T07:59:08.041Z,9.19
2023-05-19T08:02:13.109Z,9.18
2023-05-19T08:05:14.926Z,9.10
2023-05-19T08:08:19.818Z,9.23
2023-05-19T08:11:21.645Z,9.28
2023-05-19T08:14:23.718Z,9.28
2023-05-19T08:17:25.569Z,9.26
2023-05-19T08:20:28.334Z,9.30
2023-05-19T08:23:31.941Z,9.35
2023-05-19T08:26:36.965Z,9.39
2023-05-19T08:29:39.823Z,9.42
2023-05-19T08:32:41.744Z,9.47
2023-05-19T08:35:43.598Z,9.53
2023-05-19T08:38:47.245Z,9.37
2023-05-19T08:41:49.018Z,9.21
2023-05-19T08:44:51.015Z,9.17
2023-05-19T08:47:52.981Z,9.22
2023-05-19T08:51:01.827Z,9.31
2023-05-19T08:54:15.910Z,9.42
2023-05-19T08:57:18.993Z,9.51
2023-05-19T09:00:21.882Z,9.60
2023-05-19T09:03:24.684Z,9.62
2023-05-19T09:06:27.386Z,9.61
2023-05-19T09:09:30.857Z,9.65
2023-05-19T09:12:34.807Z,9.66
2023-05-19T09:15:40.136Z,9.72
2023-05-19T09:18:54.358Z,9.52
2023-05-19T09:21:58.920Z,9.64
2023-05-19T09:25:02.471Z,9.66
2023-05-19T09:28:08.115Z,9.55
2023-05-19T09:31:10.889Z,9.64
2023-05-19T09:34:13.906Z,9.68
2023-05-19T09:37:16.729Z,9.82
2023-05-19T09:40:27.823Z,9.74
2023-05-19T09:43:31.868Z,9.86
2023-05-19T09:46:33.812Z,9.71
2023-05-19T09:49:35.834Z,9.72
2023-05-19T09:52:41.288Z,9.78
2023-05-19T09:55:45.863Z,9.76
2023-05-19T09:58:48.710Z,9.67
2023-05-19T10:01:51.621Z,9.75
2023-05-19T10:04:54.956Z,9.74
2023-05-19T10:07:57.065Z,9.70
2023-05-19T10:11:00.592Z,9.83
2023-05-19T10:14:02.650Z,9.95
2023-05-19T10:17:08.114Z,9.91
2023-05-19T10:20:12.046Z,10.16
2023-05-19T10:23:13.991Z,10.28
2023-05-19T10:26:18.468Z,10.35
2023-05-19T10:29:26.400Z,10.68
2023-05-19T10:32:30.873Z,10.83
2023-05-19T10:35:54.235Z,10.96
2023-05-19T10:39:04.284Z,11.17
2023-05-19T10:42:15.573Z,11.27
2023-05-19T10:45:22.269Z,11.23
2023-05-19T10:48:27.638Z,11.42
2023-05-19T10:51:31.752Z,11.46
2023-05-19T10:54:42.659Z,11.46
2023-05-19T10:57:57.395Z,11.71
2023-05-19T11:01:03.214Z,11.43
2023-05-19T11:04:06.574Z,11.67
2023-05-19T11:07:09.793Z,11.88
2023-05-19T11:10:12.336Z,12.26
2023-05-19T11:13:28.619Z,12.29
2023-05-19T11:16:32.460Z,12.19
2023-05-19T11:19:35.698Z,12.29
2023-05-19T11:22:38.500Z,12.31
2023-05-19T11:25:47.065Z,12.51
2023-05-19T11:28:52.030Z,12.62
2023-05-19T11:31:54.455Z,12.82
2023-05-19T11:34:57.302Z,12.81
2023-05-19T11:37:59.617Z,12.79
2023-05-19T11:41:01.625Z,12.98
2023-05-19T11:44:12.225Z,13.28
2023-05-19T11:47:16.958Z,13.39
2023-05-19T11:50:19.771Z,13.51
2023-05-19T11:53:22.993Z,13.64
2023-05-19T11:56:24.978Z,13.75
2023-05-19T11:59:33.448Z,13.95
2023-05-19T12:02:40.192Z,14.13
2023-05-19T12:05:45.679Z,14.40
2023-05-19T12:08:48.339Z,14.45
2023-05-19T12:11:52.005Z,14.42
2023-05-19T12:14:55.407Z,14.55
2023-05-19T12:18:01.150Z,14.64
2023-05-19T12:21:04.000Z,14.39
2023-05-19T12:24:07.167Z,14.49
2023-05-19T12:27:14.074Z,14.52
2023-05-19T12:30:17.842Z,14.73
2023-05-19T12:33:21.269Z,14.77
2023-05-19T12:36:24.628Z,14.88
2023-05-19T12:39:26.400Z,14.75
2023-05-19T12:42:29.037Z,14.74
2023-05-19T12:45:37.802Z,14.90
2023-05-19T12:48:43.234Z,15.02
2023-05-19T12:51:52.283Z,15.18
2023-05-19T12:55:01.349Z,15.18
2023-05-19T12:58:07.090Z,15.46
2023-05-19T13:01:17.916Z,15.56
2023-05-19T13:04:19.759Z,15.52
2023-05-19T13:07:21.599Z,15.49
2023-05-19T13:10:23.934Z,15.62
2023-05-19T13:13:26.397Z,15.54
2023-05-19T13:16:31.438Z,15.59
2023-05-19T13:19:35.260Z,15.73
2023-05-19T13:22:37.278Z,15.84
2023-05-19T13:25:40.845Z,15.50
2023-05-19T13:28:42.549Z,15.49
2023-05-19T13:31:46.951Z,15.47
2023-05-19T13:34:48.676Z,15.41
2023-05-19T13:37:50.982Z,15.42
2023-05-19T13:40:54.044Z,15.57
2023-05-19T13:43:58.654Z,15.65
2023-05-19T13:47:02.111Z,15.75
2023-05-19T13:50:05.427Z,15.92
2023-05-19T13:53:08.860Z,15.96
2023-05-19T13:56:10.928Z,16.09
2023-05-19T13:59:15.044Z,16.09
2023-05-19T14:02:19.449Z,16.15
2023-05-19T14:05:24.301Z,16.17
2023-05-19T14:08:26.106Z,16.19
2023-05-19T14:11:30.214Z,16.19
2023-05-19T14:14:34.603Z,16.01
2023-05-19T14:17:40.130Z,15.87
2023-05-19T14:20:44.190Z,15.79
2023-05-19T14:23:47.010Z,15.86
2023-05-19T14:26:51.093Z,15.68
2023-05-19T14:29:53.229Z,15.67
2023-05-19T14:32:59.380Z,15.66
2023-05-19T14:36:01.400Z,15.64
2023-05-19T14:39:03.388Z,15.74
2023-05-19T14:42:05.922Z,15.44
2023-05-19T14:45:09.676Z,15.42
2023-05-19T14:48:14.176Z,15.37
2023-05-19T14:51:15.894Z,15.32
2023-05-19T14:54:17.668Z,15.24
2023-05-19T14:57:19.734Z,15.18
2023-05-19T15:00:21.761Z,15.08
2023-05-19T15:03:27.107Z,15.06
2023-05-19T15:06:30.954Z,15.03
2023-05-19T15:09:33.201Z,15.02
2023-05-19T15:12:35.273Z,15.03
2023-05-19T15:15:38.985Z,15.02
2023-05-19T15:18:42.539Z,15.01
2023-05-19T15:21:45.633Z,15.05
2023-05-19T15:24:47.617Z,15.00
2023-05-19T15:27:49.640Z,14.91
2023-05-19T15:30:51.815Z,14.99
2023-05-19T15:33:56.161Z,15.09
2023-05-19T15:36:57.951Z,15.04
2023-05-19T15:40:00.055Z,14.98
2023-05-19T15:43:02.004Z,15.09
2023-05-19T15:46:06.588Z,15.10
2023-05-19T15:49:13.034Z,15.14
2023-05-19T15:52:15.020Z,15.18
2023-05-19T15:55:17.062Z,15.12
2023-05-19T15:58:21.411Z,15.21
2023-05-19T16:01:23.391Z,15.24
2023-05-19T16:04:28.880Z,15.34
2023-05-19T16:07:30.781Z,15.40
2023-05-19T16:10:33.179Z,15.50
2023-05-19T16:13:35.577Z,15.51
2023-05-19T16:16:37.444Z,15.44
2023-05-19T16:19:45.796Z,15.53
2023-05-19T16:22:50.375Z,15.58
2023-05-19T16:25:52.809Z,15.51
2023-05-19T16:28:56.839Z,15.70
2023-05-19T16:31:58.677Z,15.74
2023-05-19T16:35:04.123Z,15.74
2023-05-19T16:38:06.476Z,15.72
2023-05-19T16:41:11.516Z,15.71
2023-05-19T16:44:14.513Z,15.60
2023-05-19T16:47:16.447Z,15.50
2023-05-19T16:50:20.186Z,15.37
2023-05-19T16:53:22.094Z,15.30
2023-05-19T16:56:24.257Z,15.33
2023-05-19T16:59:28.296Z,15.17
2023-05-19T17:02:30.430Z,15.16
2023-05-19T17:05:33.921Z,15.15
2023-05-19T17:08:36.104Z,15.21
2023-05-19T17:11:39.946Z,14.98
2023-05-19T17:14:42.258Z,15.02
2023-05-19T17:17:51.402Z,15.09
2023-05-19T17:20:57.081Z,14.98
2023-05-19T17:23:58.875Z,14.95
2023-05-19T17:27:03.413Z,14.87
2023-05-19T17:30:08.746Z,14.84
2023-05-19T17:33:11.298Z,14.95
2023-05-19T17:36:14.537Z,14.88
2023-05-19T17:39:16.584Z,14.65
2023-05-19T17:42:18.497Z,14.65
2023-05-19T17:45:20.530Z,14.61
2023-05-19T17:48:23.266Z,14.54
2023-05-19T17:51:27.494Z,14.55
2023-05-19T17:54:31.901Z,14.47
2023-05-19T17:57:35.518Z,14.43
2023-05-19T18:00:38.463Z,14.38
2023-05-19T18:03:41.171Z,14.53
2023-05-19T18:06:45.507Z,14.45
2023-05-19T18:09:51.603Z,14.40
2023-05-19T18:12:53.910Z,14.44
2023-05-19T18:15:59.096Z,14.33
2023-05-19T18:19:01.445Z,14.30
2023-05-19T18:22:05.568Z,14.21
2023-05-19T18:25:08.817Z,14.15
2023-05-19T18:28:11.242Z,14.15
2023-05-19T18:31:13.727Z,14.10
2023-05-19T18:34:16.731Z,13.98
2023-05-19T18:37:23.540Z,13.91
2023-05-19T18:40:26.637Z,13.82
2023-05-19T18:43:29.145Z,13.84
2023-05-19T18:46:31.681Z,13.84
2023-05-19T18:49:34.286Z,13.83
2023-05-19T18:52:38.203Z,13.75
2023-05-19T18:55:40.960Z,13.77
2023-05-19T18:58:43.391Z,13.76
2023-05-19T19:01:46.019Z,13.81
2023-05-19T19:04:48.634Z,13.61
2023-05-19T19:07:55.558Z,13.58
2023-05-19T19:11:00.233Z,13.56
2023-05-19T19:14:02.996Z,13.54
2023-05-19T19:17:05.930Z,13.47
2023-05-19T19:20:09.724Z,13.37
2023-05-19T19:23:13.767Z,13.44
2023-05-19T19:26:16.478Z,13.40
2023-05-19T19:29:19.323Z,13.19
2023-05-19T19:32:22.201Z,13.18
2023-05-19T19:35:24.908Z,13.22
2023-05-19T19:38:28.762Z,13.16
2023-05-19T19:41:31.310Z,13.09
2023-05-19T19:44:37.473Z,13.16
2023-05-19T19:47:43.501Z,13.17
2023-05-19T19:50:47.068Z,13.15
2023-05-19T19:53:51.446Z,13.08
2023-05-19T19:56:55.016Z,13.05
2023-05-19T19:59:57.553Z,13.01
2023-05-19T20:06:05.883Z,12.86
2023-05-19T20:09:09.681Z,12.87
2023-05-19T20:12:12.175Z,13.00
2023-05-19T20:15:15.449Z,13.05
2023-05-19T20:18:18.115Z,12.89
2023-05-19T20:21:21.671Z,12.90
2023-05-19T20:24:26.558Z,12.83
2023-05-19T20:27:29.518Z,12.83
2023-05-19T20:30:33.955Z,12.97
2023-05-19T20:33:39.535Z,12.83
2023-05-19T20:36:43.153Z,12.99
2023-05-19T20:39:48.276Z,12.94
2023-05-19T20:42:52.792Z,12.90
2023-05-19T20:45:55.215Z,13.09
2023-05-19T20:49:01.540Z,13.08
2023-05-19T20:52:04.086Z,13.19
2023-05-19T20:55:08.854Z,13.30
2023-05-19T20:58:11.013Z,13.30
2023-05-19T21:01:13.663Z,13.26
2023-05-19T21:04:15.597Z,12.93
2023-05-19T21:07:17.515Z,13.08
2023-05-19T21:10:20.770Z,13.08
2023-05-19T21:13:24.230Z,13.05
2023-05-19T21:16:26.109Z,13.13
2023-05-19T21:19:28.398Z,12.67
2023-05-19T21:22:30.507Z,12.87
2023-05-19T21:25:33.907Z,12.94
2023-05-19T21:28:36.169Z,12.94
2023-05-19T21:31:40.342Z,12.84
2023-05-19T21:34:42.361Z,12.83
2023-05-19T21:37:47.230Z,12.91
2023-05-19T21:40:52.261Z,12.51
2023-05-19T21:43:54.738Z,12.46
2023-05-19T21:46:56.789Z,12.62
2023-05-19T21:49:58.790Z,12.61
2023-05-19T21:53:01.376Z,12.61
2023-05-19T21:56:05.227Z,12.56
2023-05-19T21:59:07.532Z,12.44
2023-05-19T22:02:09.905Z,12.49
2023-05-19T22:05:13.044Z,12.54
2023-05-19T22:08:14.995Z,12.63
2023-05-19T22:11:19.336Z,12.69
2023-05-19T22:14:21.299Z,12.63
2023-05-19T22:17:23.359Z,12.55
2023-05-19T22:20:25.587Z,12.47
2023-05-19T22:23:27.663Z,12.35
2023-05-19T22:26:31.149Z,12.19
2023-05-19T22:29:33.471Z,12.21
2023-05-19T22:32:37.684Z,12.22
2023-05-19T22:35:39.524Z,12.20
2023-05-19T22:38:41.342Z,12.28
2023-05-19T22:41:46.747Z,12.30
2023-05-19T22:44:50.185Z,12.09
2023-05-19T22:47:52.095Z,12.12
2023-05-19T22:50:54.017Z,12.04
2023-05-19T22:53:55.962Z,12.07
2023-05-19T22:57:01.679Z,12.11
2023-05-19T23:00:03.842Z,12.18
2023-05-19T23:03:06.423Z,12.22
2023-05-19T23:06:08.274Z,12.12
2023-05-19T23:09:10.338Z,12.04
2023-05-19T23:12:13.790Z,12.01
2023-05-19T23:15:15.843Z,12.05
2023-05-19T23:18:17.722Z,12.05
2023-05-19T23:21:19.982Z,11.98
2023-05-19T23:24:21.739Z,12.03
2023-05-19T23:27:26.093Z,11.97
2023-05-19T23:30:28.122Z,11.96
2023-05-19T23:33:29.968Z,11.89
2023-05-19T23:36:31.833Z,11.75
2023-05-19T23:39:34.128Z,11.70
2023-05-19T23:42:37.631Z,11.63
2023-05-19T23:45:39.366Z,11.66
2023-05-19T23:48:41.361Z,11.73
2023-05-19T23:51:43.437Z,11.69
2023-05-19T23:54:45.413Z,11.73
2023-05-19T23:57:49.183Z,11.59
